Time;durP1;ratioP1;P1;durP2;ratioP2;P2;SDS_P1;SDS_P2;PMS_P1;PMS_P2;Temp;Humidity;BMP_temperature;BMP_pressure;BME280_temperature;BME280_humidity;BME280_pressure;Samples;Min_cycle;Max_cycle;Signal;HPM_P1;HPM_P2
2022/08/07 00:02:13;;;;;;;65.10;24.87;;;;;;;;;;5048305;27;90671;-52
2022/08/07 00:05:01;;;;;;;62.47;25.07;;;;;;;;;;5049550;27;87004;-53
2022/08/07 00:07:32;;;;;;;59.70;25.87;;;;;;;;;;5051357;27;87227;-52
2022/08/07 00:10:10;;;;;;;64.27;26.30;;;;;;;;;;5051129;27;87635;-52
2022/08/07 00:12:54;;;;;;;69.70;27.63;;;;;;;;;;5050729;27;90351;-53
2022/08/07 00:15:28;;;;;;;64.77;27.90;;;;;;;;;;5050977;27;86969;-53
2022/08/07 00:18:13;;;;;;;60.43;25.43;;;;;;;;;;5051205;27;86530;-52
2022/08/07 00:20:48;;;;;;;63.00;27.00;;;;;;;;;;5048482;27;88075;-53
2022/08/07 00:23:16;;;;;;;59.00;27.07;;;;;;;;;;5040298;27;87797;-52
2022/08/07 00:25:49;;;;;;;71.80;28.07;;;;;;;;;;5043297;27;89179;-52
2022/08/07 00:28:27;;;;;;;61.83;26.37;;;;;;;;;;5045235;27;87125;-52
2022/08/07 00:31:01;;;;;;;64.03;28.57;;;;;;;;;;5048293;27;88371;-52
2022/08/07 00:33:33;;;;;;;67.77;28.30;;;;;;;;;;5047040;27;87858;-52
2022/08/07 00:36:02;;;;;;;71.37;29.57;;;;;;;;;;5048635;27;86738;-52
2022/08/07 00:38:31;;;;;;;69.03;29.73;;;;;;;;;;5049966;27;87073;-52
2022/08/07 00:41:01;;;;;;;68.27;29.23;;;;;;;;;;5048432;27;86912;-53
2022/08/07 00:43:30;;;;;;;66.87;29.73;;;;;;;;;;5047028;27;88028;-52
2022/08/07 00:46:18;;;;;;;67.63;29.53;;;;;;;;;;5048979;27;87059;-54
2022/08/07 00:48:49;;;;;;;65.37;28.60;;;;;;;;;;5045769;27;87089;-54
2022/08/07 00:51:19;;;;;;;75.27;31.83;;;;;;;;;;5047789;27;88902;-54
2022/08/07 00:53:48;;;;;;;67.00;28.53;;;;;;;;;;5044796;27;88548;-53
2022/08/07 00:56:19;;;;;;;67.20;29.70;;;;;;;;;;5048444;27;86960;-53
2022/08/07 00:58:47;;;;;;;60.17;29.77;;;;;;;;;;5056338;27;87289;-53
2022/08/07 01:01:17;;;;;;;71.90;31.57;;;;;;;;;;5040276;27;88098;-53
2022/08/07 01:03:46;;;;;;;60.80;28.20;;;;;;;;;;5047349;27;88964;-53
2022/08/07 01:06:27;;;;;;;64.70;29.30;;;;;;;;;;5044407;27;86981;-53
2022/08/07 01:08:55;;;;;;;58.23;27.73;;;;;;;;;;5044471;27;86407;-53
2022/08/07 01:11:29;;;;;;;63.87;29.73;;;;;;;;;;5046651;27;88037;-53
2022/08/07 01:14:20;;;;;;;59.03;28.27;;;;;;;;;;5052856;27;87371;-53
2022/08/07 01:16:56;;;;;;;64.23;27.03;;;;;;;;;;5041931;27;88034;-53
2022/08/07 01:19:24;;;;;;;68.23;29.10;;;;;;;;;;5043140;27;86972;-53
2022/08/07 01:21:54;;;;;;;60.23;27.87;;;;;;;;;;5041242;27;88370;-53
2022/08/07 01:24:22;;;;;;;56.57;26.30;;;;;;;;;;5043778;27;88992;-52
2022/08/07 01:26:51;;;;;;;59.40;28.03;;;;;;;;;;5041926;27;87311;-53
2022/08/07 01:29:21;;;;;;;62.80;28.53;;;;;;;;;;5044092;27;87170;-53
2022/08/07 01:31:49;;;;;;;51.57;26.50;;;;;;;;;;5051865;27;87039;-52
2022/08/07 01:34:17;;;;;;;55.37;27.47;;;;;;;;;;5053614;27;88046;-52
2022/08/07 01:36:47;;;;;;;58.47;28.83;;;;;;;;;;5052256;27;86977;-52
2022/08/07 01:39:26;;;;;;;59.83;26.10;;;;;;;;;;5052488;27;87046;-52
2022/08/07 01:42:14;;;;;;;59.57;28.60;;;;;;;;;;5042696;27;89064;-53
2022/08/07 01:45:02;;;;;;;52.17;26.33;;;;;;;;;;5043092;27;88369;-53
2022/08/07 01:47:31;;;;;;;61.57;26.80;;;;;;;;;;5043262;27;87011;-53
2022/08/07 01:50:19;;;;;;;54.47;25.07;;;;;;;;;;5047522;27;87051;-53
2022/08/07 01:52:56;;;;;;;50.17;24.03;;;;;;;;;;5045266;27;88076;-53
2022/08/07 01:55:27;;;;;;;53.27;23.33;;;;;;;;;;5045858;27;88420;-52
2022/08/07 01:57:56;;;;;;;53.20;23.97;;;;;;;;;;5045164;27;86982;-52
2022/08/07 02:00:44;;;;;;;46.50;23.10;;;;;;;;;;5048133;27;86258;-52
2022/08/07 02:03:17;;;;;;;40.77;21.73;;;;;;;;;;5046240;27;88122;-53
2022/08/07 02:06:06;;;;;;;41.23;21.17;;;;;;;;;;5051796;27;87713;-53
2022/08/07 02:08:54;;;;;;;39.77;20.70;;;;;;;;;;5048637;27;87777;-52
2022/08/07 02:11:24;;;;;;;43.53;20.73;;;;;;;;;;5051176;27;87073;-52
2022/08/07 02:14:13;;;;;;;31.63;18.40;;;;;;;;;;5048019;27;87717;-52
2022/08/07 02:17:01;;;;;;;38.17;18.63;;;;;;;;;;5048648;27;87657;-54
2022/08/07 02:19:30;;;;;;;37.13;20.37;;;;;;;;;;5053208;27;87334;-52
2022/08/07 02:22:19;;;;;;;34.50;19.17;;;;;;;;;;5050036;27;87020;-53
2022/08/07 02:24:52;;;;;;;32.73;18.83;;;;;;;;;;5048096;27;88542;-53
2022/08/07 02:27:23;;;;;;;32.67;17.40;;;;;;;;;;5051895;27;88954;-53
2022/08/07 02:29:51;;;;;;;29.17;17.50;;;;;;;;;;5052732;27;87014;-52
2022/08/07 02:32:22;;;;;;;33.43;17.37;;;;;;;;;;5051267;27;86972;-53
2022/08/07 02:34:57;;;;;;;32.53;18.17;;;;;;;;;;5048691;27;88982;-53
2022/08/07 02:37:28;;;;;;;31.73;16.13;;;;;;;;;;5047445;27;89708;-53
2022/08/07 02:40:03;;;;;;;26.53;14.93;;;;;;;;;;5051376;27;86949;-53
2022/08/07 02:42:53;;;;;;;27.37;16.20;;;;;;;;;;5050197;27;86954;-52
2022/08/07 02:45:22;;;;;;;25.40;15.53;;;;;;;;;;5050469;27;89150;-53
2022/08/07 02:48:10;;;;;;;29.90;15.63;;;;;;;;;;5051610;27;87790;-53
2022/08/07 02:50:43;;;;;;;24.53;12.90;;;;;;;;;;5051956;27;87064;-52
2022/08/07 02:53:12;;;;;;;22.70;13.23;;;;;;;;;;5050293;27;86382;-53
2022/08/07 02:55:43;;;;;;;24.73;12.30;;;;;;;;;;5050920;27;88191;-52
2022/08/07 02:58:32;;;;;;;20.37;11.57;;;;;;;;;;5052242;27;90675;-52
2022/08/07 03:01:01;;;;;;;23.40;11.20;;;;;;;;;;5051317;27;87932;-53
2022/08/07 03:03:31;;;;;;;21.53;12.13;;;;;;;;;;5050034;27;87151;-52
2022/08/07 03:06:17;;;;;;;17.47;10.67;;;;;;;;;;5047790;27;89106;-52
2022/08/07 03:09:00;;;;;;;17.57;9.83;;;;;;;;;;5048919;27;87608;-52
2022/08/07 03:11:28;;;;;;;20.10;10.13;;;;;;;;;;5051421;27;86943;-53
2022/08/07 03:14:01;;;;;;;20.60;9.83;;;;;;;;;;5051175;27;87074;-52
2022/08/07 03:16:29;;;;;;;17.30;10.00;;;;;;;;;;5051053;27;89244;-52
2022/08/07 03:18:58;;;;;;;15.53;8.77;;;;;;;;;;5053485;27;89077;-53
2022/08/07 03:21:26;;;;;;;19.60;8.90;;;;;;;;;;5051383;27;87196;-53
2022/08/07 03:23:54;;;;;;;16.67;8.07;;;;;;;;;;5048651;27;87009;-54
2022/08/07 03:26:43;;;;;;;17.13;8.93;;;;;;;;;;5048076;27;88827;-53
2022/08/07 03:29:27;;;;;;;12.67;7.90;;;;;;;;;;5051219;27;89732;-52
2022/08/07 03:31:56;;;;;;;12.93;7.03;;;;;;;;;;5049269;27;87587;-52
2022/08/07 03:34:26;;;;;;;16.63;8.00;;;;;;;;;;5049806;27;87011;-53
2022/08/07 03:36:54;;;;;;;16.17;6.70;;;;;;;;;;5047846;27;88037;-52
2022/08/07 03:39:25;;;;;;;11.53;6.20;;;;;;;;;;5042650;27;88865;-53
2022/08/07 03:42:13;;;;;;;11.27;6.87;;;;;;;;;;5039732;27;86974;-53
2022/08/07 03:44:45;;;;;;;15.70;7.20;;;;;;;;;;5042815;28;86404;-52
2022/08/07 03:47:20;;;;;;;11.73;5.73;;;;;;;;;;5042230;27;89070;-52
2022/08/07 03:49:50;;;;;;;10.67;6.53;;;;;;;;;;5042709;27;88704;-53
2022/08/07 03:52:20;;;;;;;9.87;5.57;;;;;;;;;;5042241;27;87948;-53
2022/08/07 03:54:53;;;;;;;8.23;5.17;;;;;;;;;;5042436;27;86903;-52
2022/08/07 03:57:26;;;;;;;12.07;5.57;;;;;;;;;;5042158;27;87894;-52
2022/08/07 04:00:16;;;;;;;8.37;5.07;;;;;;;;;;5042057;27;90539;-54
2022/08/07 04:02:48;;;;;;;8.03;4.80;;;;;;;;;;5042324;27;87064;-53
2022/08/07 04:05:16;;;;;;;9.43;5.27;;;;;;;;;;5042390;27;87225;-52
2022/08/07 04:07:51;;;;;;;6.53;4.33;;;;;;;;;;5042074;27;87044;-53
2022/08/07 04:10:19;;;;;;;6.70;4.10;;;;;;;;;;5034391;27;88101;-52
2022/08/07 04:12:51;;;;;;;7.33;4.53;;;;;;;;;;5021755;28;87061;-53
2022/08/07 04:15:20;;;;;;;5.70;3.87;;;;;;;;;;5021400;28;87095;-52
2022/08/07 04:17:51;;;;;;;5.90;4.10;;;;;;;;;;5021425;28;90052;-53
2022/08/07 04:20:39;;;;;;;6.57;4.00;;;;;;;;;;5021738;28;91396;-53
2022/08/07 04:23:22;;;;;;;4.43;3.70;;;;;;;;;;5021776;28;86972;-52
2022/08/07 04:26:10;;;;;;;4.27;3.43;;;;;;;;;;5021873;28;86942;-52
2022/08/07 04:28:38;;;;;;;4.83;3.03;;;;;;;;;;5020346;28;89057;-53
2022/08/07 04:31:10;;;;;;;5.23;2.87;;;;;;;;;;5022155;28;89022;-53
2022/08/07 04:33:59;;;;;;;4.87;3.10;;;;;;;;;;5021044;28;86995;-53
2022/08/07 04:36:27;;;;;;;5.93;2.90;;;;;;;;;;5022002;28;86121;-52
2022/08/07 04:38:56;;;;;;;6.23;3.20;;;;;;;;;;5021738;28;88309;-52
2022/08/07 04:41:25;;;;;;;3.67;2.37;;;;;;;;;;5036639;28;87948;-52
2022/08/07 04:43:55;;;;;;;4.30;2.97;;;;;;;;;;5040577;27;87816;-52
2022/08/07 04:46:46;;;;;;;4.87;2.97;;;;;;;;;;5041359;27;87056;-53
2022/08/07 04:49:38;;;;;;;7.97;2.37;;;;;;;;;;5035941;27;87710;-53
2022/08/07 04:52:08;;;;;;;4.50;2.20;;;;;;;;;;5021274;28;87693;-53
2022/08/07 04:54:39;;;;;;;4.67;3.20;;;;;;;;;;5021579;28;86966;-52
2022/08/07 04:57:18;;;;;;;3.47;2.37;;;;;;;;;;5021465;28;87043;-53
2022/08/07 05:00:06;;;;;;;3.13;2.27;;;;;;;;;;5020083;28;87706;-52
2022/08/07 05:02:48;;;;;;;3.50;2.23;;;;;;;;;;5020838;28;88790;-52
2022/08/07 05:05:18;;;;;;;2.23;1.60;;;;;;;;;;5021308;28;87041;-52
2022/08/07 05:08:07;;;;;;;3.50;2.30;;;;;;;;;;5026213;28;86975;-52
2022/08/07 05:10:35;;;;;;;3.53;2.30;;;;;;;;;;5041280;27;89191;-53
2022/08/07 05:13:06;;;;;;;3.13;2.13;;;;;;;;;;5040827;27;88646;-53
2022/08/07 05:15:54;;;;;;;2.53;1.60;;;;;;;;;;5041031;27;86989;-53
2022/08/07 05:18:27;;;;;;;3.53;1.73;;;;;;;;;;5041124;28;87053;-53
2022/08/07 05:20:57;;;;;;;3.67;1.87;;;;;;;;;;5040975;27;87930;-53
2022/08/07 05:23:28;;;;;;;2.93;1.50;;;;;;;;;;5040816;27;88905;-53
2022/08/07 05:25:58;;;;;;;4.07;1.70;;;;;;;;;;5040840;27;86948;-52
2022/08/07 05:28:44;;;;;;;4.33;1.67;;;;;;;;;;5028357;27;86262;-53
2022/08/07 05:31:17;;;;;;;3.60;1.77;;;;;;;;;;5020234;28;87890;-53
2022/08/07 05:33:48;;;;;;;2.37;1.50;;;;;;;;;;5020040;28;87965;-53
2022/08/07 05:36:32;;;;;;;1.43;1.33;;;;;;;;;;5020031;28;88023;-53
2022/08/07 05:39:03;;;;;;;1.97;1.57;;;;;;;;;;5034860;27;87057;-53
2022/08/07 05:41:51;;;;;;;2.17;1.30;;;;;;;;;;5044306;27;87777;-53
2022/08/07 05:44:31;;;;;;;2.83;1.43;;;;;;;;;;5044213;27;87888;-54
2022/08/07 05:47:00;;;;;;;1.60;1.23;;;;;;;;;;5049708;27;87051;-53
2022/08/07 05:49:29;;;;;;;1.50;1.23;;;;;;;;;;5054070;27;87002;-51
2022/08/07 05:52:08;;;;;;;2.10;1.33;;;;;;;;;;5049298;27;88074;-53
2022/08/07 05:54:39;;;;;;;2.10;1.30;;;;;;;;;;5044350;27;88909;-53
2022/08/07 05:57:21;;;;;;;1.47;1.27;;;;;;;;;;5024191;28;87113;-53
2022/08/07 05:59:53;;;;;;;1.53;1.03;;;;;;;;;;5039919;27;87036;-53
2022/08/07 06:02:25;;;;;;;1.60;1.23;;;;;;;;;;5050709;27;88906;-53
2022/08/07 06:04:58;;;;;;;1.23;1.13;;;;;;;;;;5052552;27;88859;-53
2022/08/07 06:07:27;;;;;;;1.37;1.13;;;;;;;;;;5050785;27;87054;-53
2022/08/07 06:10:15;;;;;;;1.87;1.27;;;;;;;;;;5053574;27;87207;-53
2022/08/07 06:12:43;;;;;;;2.20;0.80;;;;;;;;;;5054321;27;88132;-53
2022/08/07 06:15:12;;;;;;;1.10;0.73;;;;;;;;;;5053028;27;88907;-51
2022/08/07 06:17:43;;;;;;;1.20;0.90;;;;;;;;;;5048217;27;87023;-53
2022/08/07 06:20:23;;;;;;;1.43;0.90;;;;;;;;;;5050104;27;86184;-53
2022/08/07 06:22:59;;;;;;;1.50;0.93;;;;;;;;;;5052249;27;88225;-53
2022/08/07 06:25:48;;;;;;;2.03;0.80;;;;;;;;;;5050936;27;90098;-53
2022/08/07 06:28:24;;;;;;;1.00;0.90;;;;;;;;;;5049694;27;87945;-53
2022/08/07 06:30:55;;;;;;;2.17;0.93;;;;;;;;;;5051592;27;86995;-53
2022/08/07 06:33:25;;;;;;;1.10;0.80;;;;;;;;;;5049736;27;87096;-53
2022/08/07 06:35:55;;;;;;;1.13;0.97;;;;;;;;;;5050600;27;87791;-53
2022/08/07 06:38:41;;;;;;;2.50;1.50;;;;;;;;;;5050958;27;87511;-53
2022/08/07 06:41:31;;;;;;;1.50;1.07;;;;;;;;;;5053334;27;87246;-53
2022/08/07 06:44:19;;;;;;;1.50;0.90;;;;;;;;;;5049403;27;87597;-53
2022/08/07 06:46:47;;;;;;;1.00;0.90;;;;;;;;;;5052394;27;89108;-53
2022/08/07 06:49:27;;;;;;;1.80;0.80;;;;;;;;;;5060818;27;87089;-53
2022/08/07 06:51:56;;;;;;;1.23;0.70;;;;;;;;;;5063422;27;87107;-53
2022/08/07 06:54:34;;;;;;;0.80;0.67;;;;;;;;;;5062642;27;89190;-53
2022/08/07 06:57:23;;;;;;;1.30;0.70;;;;;;;;;;5063102;27;88289;-53
2022/08/07 07:00:12;;;;;;;1.10;0.80;;;;;;;;;;5063514;27;87127;-53
2022/08/07 07:02:45;;;;;;;1.20;0.90;;;;;;;;;;5063316;27;87166;-53
2022/08/07 07:05:21;;;;;;;1.10;0.77;;;;;;;;;;5063222;27;89209;-53
2022/08/07 07:08:11;;;;;;;1.00;0.60;;;;;;;;;;5061124;27;87338;-52
2022/08/07 07:10:52;;;;;;;1.30;0.97;;;;;;;;;;5023109;28;87037;-53
2022/08/07 07:13:27;;;;;;;3.17;1.50;;;;;;;;;;5033508;28;86365;-53
2022/08/07 07:16:18;;;;;;;1.73;1.50;;;;;;;;;;5042350;27;90490;-53
2022/08/07 07:18:48;;;;;;;3.20;1.90;;;;;;;;;;5043354;27;87936;-53
2022/08/07 07:21:17;;;;;;;2.80;1.70;;;;;;;;;;5042627;28;88002;-53
2022/08/07 07:23:48;;;;;;;2.53;1.90;;;;;;;;;;5042707;27;86974;-52
2022/08/07 07:26:36;;;;;;;4.40;2.20;;;;;;;;;;5042454;27;87891;-53
2022/08/07 07:29:09;;;;;;;4.57;2.50;;;;;;;;;;5042321;27;87179;-53
2022/08/07 07:31:58;;;;;;;3.83;2.30;;;;;;;;;;5040077;27;87235;-53
2022/08/07 07:34:27;;;;;;;4.90;2.40;;;;;;;;;;5040672;27;87061;-53
2022/08/07 07:36:59;;;;;;;4.87;2.93;;;;;;;;;;5042416;27;87842;-53
2022/08/07 07:39:48;;;;;;;5.60;2.70;;;;;;;;;;5042980;27;87404;-53
2022/08/07 07:42:22;;;;;;;6.57;3.27;;;;;;;;;;5041094;27;88329;-53
2022/08/07 07:44:59;;;;;;;6.10;2.80;;;;;;;;;;5042102;27;86917;-53
2022/08/07 07:47:28;;;;;;;5.40;2.83;;;;;;;;;;5041043;27;89927;-52
2022/08/07 07:49:56;;;;;;;5.27;2.73;;;;;;;;;;5041109;27;88911;-52
2022/08/07 07:52:44;;;;;;;5.40;2.60;;;;;;;;;;5042185;27;86890;-52
2022/08/07 07:55:15;;;;;;;3.83;2.33;;;;;;;;;;5041726;27;87008;-53
2022/08/07 07:57:44;;;;;;;4.27;2.80;;;;;;;;;;5041328;27;88324;-54
2022/08/07 08:00:21;;;;;;;3.90;2.90;;;;;;;;;;5040501;27;87751;-53
2022/08/07 08:03:08;;;;;;;3.43;2.13;;;;;;;;;;5041846;27;87143;-53
2022/08/07 08:05:56;;;;;;;3.57;2.40;;;;;;;;;;5040120;27;86248;-53
2022/08/07 08:08:25;;;;;;;4.27;2.67;;;;;;;;;;5040621;28;89070;-53
2022/08/07 08:11:06;;;;;;;3.60;2.63;;;;;;;;;;5023108;28;87797;-52
2022/08/07 08:13:36;;;;;;;7.77;2.97;;;;;;;;;;5021452;28;87875;-54
2022/08/07 08:16:22;;;;;;;5.33;3.13;;;;;;;;;;5028281;28;87111;-54
2022/08/07 08:18:52;;;;;;;6.50;3.30;;;;;;;;;;5044137;27;87641;-54
2022/08/07 08:27:15;;;;;;;4.17;2.60;;;;;;;;;;5051359;27;87101;-52
2022/08/07 08:29:45;;;;;;;4.30;2.50;;;;;;;;;;5049753;27;86992;-52
2022/08/07 08:32:24;;;;;;;4.20;2.67;;;;;;;;;;5048283;27;87714;-52
2022/08/07 08:35:07;;;;;;;6.50;2.70;;;;;;;;;;5049805;27;87094;-53
2022/08/07 08:37:36;;;;;;;5.40;3.30;;;;;;;;;;5044643;27;87075;-52
2022/08/07 08:40:26;;;;;;;4.00;3.00;;;;;;;;;;5048479;27;88686;-53
2022/08/07 08:42:59;;;;;;;7.20;4.63;;;;;;;;;;5041390;27;89746;-52
2022/08/07 08:45:29;;;;;;;14.73;7.60;;;;;;;;;;5051626;27;86966;-53
2022/08/07 08:48:19;;;;;;;18.20;8.70;;;;;;;;;;5049694;27;87160;-52
2022/08/07 08:50:48;;;;;;;15.77;7.90;;;;;;;;;;5051600;27;87182;-52
2022/08/07 08:53:20;;;;;;;14.33;6.57;;;;;;;;;;5048008;27;87919;-52
2022/08/07 08:55:50;;;;;;;7.77;4.77;;;;;;;;;;5051120;27;87292;-53
2022/08/07 08:58:27;;;;;;;7.07;4.47;;;;;;;;;;5048771;27;87227;-52
2022/08/07 09:00:59;;;;;;;9.90;4.77;;;;;;;;;;5047992;27;88353;-52
2022/08/07 09:03:45;;;;;;;8.90;4.90;;;;;;;;;;5048741;27;88227;-53
2022/08/07 09:06:20;;;;;;;9.07;5.03;;;;;;;;;;5049850;27;88036;-52
2022/08/07 09:08:49;;;;;;;10.93;4.70;;;;;;;;;;5047007;27;86997;-54
2022/08/07 09:11:19;;;;;;;4.93;3.50;;;;;;;;;;5048398;27;88129;-53
2022/08/07 09:14:11;;;;;;;6.77;3.70;;;;;;;;;;5051416;27;90336;-52
2022/08/07 09:16:45;;;;;;;6.57;3.83;;;;;;;;;;5052705;27;87106;-52
2022/08/07 09:19:21;;;;;;;8.53;4.03;;;;;;;;;;5052680;27;87080;-53
2022/08/07 09:22:12;;;;;;;7.63;4.20;;;;;;;;;;5055480;27;88061;-52
2022/08/07 09:25:05;;;;;;;6.60;4.60;;;;;;;;;;5044779;27;86654;-53
2022/08/07 09:27:46;;;;;;;9.67;4.60;;;;;;;;;;5054366;27;87017;-52
2022/08/07 09:30:30;;;;;;;10.70;5.10;;;;;;;;;;5054139;27;87076;-52
2022/08/07 09:33:03;;;;;;;12.90;5.13;;;;;;;;;;5052346;27;88987;-54
2022/08/07 09:35:36;;;;;;;15.37;6.20;;;;;;;;;;5050363;27;87475;-52
2022/08/07 09:38:26;;;;;;;16.57;6.13;;;;;;;;;;5053837;27;87189;-52
2022/08/07 09:40:58;;;;;;;14.03;7.10;;;;;;;;;;5052472;27;87183;-54
2022/08/07 09:43:31;;;;;;;17.87;8.47;;;;;;;;;;5052185;27;88048;-53
2022/08/07 09:46:25;;;;;;;21.67;9.07;;;;;;;;;;5054830;27;87415;-52
2022/08/07 09:49:18;;;;;;;21.00;9.83;;;;;;;;;;5051423;27;87665;-52
2022/08/07 09:52:07;;;;;;;19.10;9.63;;;;;;;;;;5051494;27;86213;-52
2022/08/07 09:54:45;;;;;;;22.47;10.23;;;;;;;;;;5055819;27;89266;-52
2022/08/07 09:57:24;;;;;;;26.43;11.40;;;;;;;;;;5055159;27;88003;-52
2022/08/07 10:00:01;;;;;;;23.83;10.67;;;;;;;;;;5040617;27;87994;-52
2022/08/07 10:02:48;;;;;;;22.77;11.97;;;;;;;;;;5048336;27;87492;-52
2022/08/07 10:05:31;;;;;;;22.93;12.63;;;;;;;;;;5043802;27;88057;-52
2022/08/07 10:08:46;;;;;;;23.40;11.10;;;;;;;;;;5049144;27;88035;-52
2022/08/07 10:11:22;;;;;;;23.03;11.87;;;;;;;;;;5020586;27;87080;-52
2022/08/07 10:14:13;;;;;;;23.07;11.20;;;;;;;;;;5052715;27;87060;-52
2022/08/07 10:17:01;;;;;;;24.83;11.67;;;;;;;;;;5052501;27;88337;-52
2022/08/07 10:19:36;;;;;;;26.80;10.90;;;;;;;;;;5051899;27;88964;-52
2022/08/07 10:22:25;;;;;;;28.37;12.67;;;;;;;;;;5052774;27;87137;-52
2022/08/07 10:25:13;;;;;;;20.30;11.23;;;;;;;;;;5047497;27;88321;-54
2022/08/07 10:27:47;;;;;;;19.97;10.47;;;;;;;;;;5041836;27;89726;-52
2022/08/07 10:30:19;;;;;;;23.00;10.23;;;;;;;;;;5046051;27;88735;-52
2022/08/07 10:32:57;;;;;;;17.43;10.33;;;;;;;;;;5048980;27;87019;-52
2022/08/07 10:35:28;;;;;;;22.77;9.70;;;;;;;;;;5049582;27;87018;-52
2022/08/07 10:38:23;;;;;;;18.73;10.70;;;;;;;;;;5047813;27;87634;-52
2022/08/07 10:41:12;;;;;;;18.47;9.33;;;;;;;;;;5051498;27;88061;-54
2022/08/07 10:44:03;;;;;;;15.13;7.90;;;;;;;;;;5045218;27;87454;-52
2022/08/07 10:46:36;;;;;;;16.87;8.57;;;;;;;;;;5041711;27;86883;-53
2022/08/07 10:49:09;;;;;;;17.17;8.23;;;;;;;;;;5048189;27;88255;-52
2022/08/07 10:51:37;;;;;;;17.00;8.60;;;;;;;;;;5044471;27;88885;-52
2022/08/07 10:54:29;;;;;;;14.17;8.50;;;;;;;;;;5046084;27;88048;-52
2022/08/07 10:57:03;;;;;;;15.67;8.83;;;;;;;;;;5050273;27;87080;-52
2022/08/07 10:59:34;;;;;;;16.93;8.20;;;;;;;;;;5050630;27;88060;-53
2022/08/07 11:02:06;;;;;;;16.70;7.80;;;;;;;;;;5050863;27;87780;-52
2022/08/07 11:04:59;;;;;;;17.67;8.30;;;;;;;;;;5053839;27;87079;-52
2022/08/07 11:07:38;;;;;;;29.80;9.57;;;;;;;;;;5050183;27;87507;-52
2022/08/07 11:10:29;;;;;;;16.93;8.67;;;;;;;;;;5051537;27;87744;-52
2022/08/07 11:12:59;;;;;;;18.63;8.93;;;;;;;;;;5049558;27;86597;-52
2022/08/07 11:15:30;;;;;;;17.03;9.33;;;;;;;;;;5051764;27;87093;-53
2022/08/07 11:18:00;;;;;;;16.77;8.67;;;;;;;;;;5052161;27;87096;-52
2022/08/07 11:20:34;;;;;;;18.47;9.00;;;;;;;;;;5052100;27;89957;-52
2022/08/07 11:23:04;;;;;;;21.97;9.67;;;;;;;;;;5052186;27;89833;-53
2022/08/07 11:25:38;;;;;;;19.63;8.77;;;;;;;;;;5050214;27;87078;-52
2022/08/07 11:28:17;;;;;;;16.70;8.50;;;;;;;;;;5049744;27;87327;-52
2022/08/07 11:30:47;;;;;;;19.63;9.73;;;;;;;;;;5048381;27;87090;-52
2022/08/07 11:33:22;;;;;;;20.07;8.97;;;;;;;;;;5049870;27;87803;-52
2022/08/07 11:36:14;;;;;;;23.17;9.83;;;;;;;;;;5049474;27;87117;-52
2022/08/07 11:38:54;;;;;;;20.63;10.03;;;;;;;;;;5048345;27;86315;-52
2022/08/07 11:41:25;;;;;;;24.13;11.40;;;;;;;;;;5050554;27;88364;-52
2022/08/07 11:44:14;;;;;;;22.57;10.30;;;;;;;;;;5049890;27;87715;-52
2022/08/07 11:46:49;;;;;;;25.50;11.03;;;;;;;;;;5049964;27;87931;-53
2022/08/07 11:49:40;;;;;;;26.40;10.33;;;;;;;;;;5048613;27;87032;-53
2022/08/07 11:52:35;;;;;;;31.90;12.50;;;;;;;;;;5048096;27;87910;-53
2022/08/07 11:55:06;;;;;;;23.17;10.70;;;;;;;;;;5050494;27;87831;-52
2022/08/07 11:57:51;;;;;;;22.53;9.63;;;;;;;;;;5050340;27;87022;-52
2022/08/07 12:00:30;;;;;;;27.50;10.47;;;;;;;;;;5048506;27;87302;-52
2022/08/07 12:03:12;;;;;;;20.40;10.20;;;;;;;;;;5046850;27;88246;-54
2022/08/07 12:06:18;;;;;;;20.07;9.43;;;;;;;;;;5049349;27;87474;-54
2022/08/07 12:09:08;;;;;;;22.70;10.00;;;;;;;;;;5049703;27;88139;-52
2022/08/07 12:11:43;;;;;;;19.93;9.37;;;;;;;;;;5048316;27;87337;-52
2022/08/07 12:14:35;;;;;;;21.23;9.13;;;;;;;;;;5050681;27;88689;-52
2022/08/07 12:17:05;;;;;;;16.13;8.23;;;;;;;;;;5050637;27;89646;-52
2022/08/07 12:19:37;;;;;;;17.20;7.83;;;;;;;;;;5048743;27;87097;-52
2022/08/07 12:22:29;;;;;;;17.03;7.83;;;;;;;;;;5062961;27;87157;-52
2022/08/07 12:28:25;;;;;;;14.90;7.17;;;;;;;;;;5053165;27;87770;-52
2022/08/07 12:31:00;;;;;;;20.37;7.67;;;;;;;;;;5044023;27;87366;-52
2022/08/07 12:33:30;;;;;;;14.17;6.53;;;;;;;;;;5050625;27;89176;-52
2022/08/07 12:36:19;;;;;;;13.23;6.90;;;;;;;;;;5052810;27;87689;-52
2022/08/07 12:39:02;;;;;;;16.23;6.70;;;;;;;;;;5047306;27;88423;-52
2022/08/07 12:41:50;;;;;;;15.33;6.50;;;;;;;;;;5045139;27;88526;-52
2022/08/07 12:44:19;;;;;;;10.83;6.13;;;;;;;;;;5046796;27;87506;-52
2022/08/07 12:46:59;;;;;;;17.50;7.17;;;;;;;;;;5033044;27;89736;-52
2022/08/07 12:49:33;;;;;;;10.37;5.80;;;;;;;;;;5033430;27;88916;-53
2022/08/07 12:52:21;;;;;;;10.73;6.50;;;;;;;;;;5041651;27;88230;-52
2022/08/07 12:54:55;;;;;;;13.00;6.80;;;;;;;;;;5047735;27;87246;-52
2022/08/07 12:57:31;;;;;;;15.80;7.57;;;;;;;;;;5047444;27;89066;-52
2022/08/07 13:00:19;;;;;;;14.63;7.07;;;;;;;;;;5050546;27;89629;-52
2022/08/07 13:03:08;;;;;;;15.87;7.70;;;;;;;;;;5046506;27;87112;-51
2022/08/07 13:05:45;;;;;;;11.70;7.03;;;;;;;;;;5046697;27;86821;-52
2022/08/07 13:08:38;;;;;;;11.40;6.40;;;;;;;;;;5048439;27;88959;-52
2022/08/07 13:11:09;;;;;;;11.73;6.57;;;;;;;;;;5046798;27;89285;-52
2022/08/07 13:13:45;;;;;;;12.57;6.23;;;;;;;;;;5046127;27;86966;-52
2022/08/07 13:16:20;;;;;;;10.10;5.70;;;;;;;;;;5048787;27;87023;-52
2022/08/07 13:18:52;;;;;;;10.63;5.43;;;;;;;;;;5049801;27;89257;-52
2022/08/07 13:21:21;;;;;;;11.43;4.97;;;;;;;;;;5050124;27;86974;-52
2022/08/07 13:24:11;;;;;;;8.47;4.47;;;;;;;;;;5047707;27;87545;-52
2022/08/07 13:26:42;;;;;;;8.87;4.87;;;;;;;;;;5048700;27;86441;-53
2022/08/07 13:29:14;;;;;;;8.93;4.73;;;;;;;;;;5049150;27;89182;-52
2022/08/07 13:31:46;;;;;;;7.13;4.00;;;;;;;;;;5039561;27;87584;-52
2022/08/07 13:34:33;;;;;;;13.27;4.93;;;;;;;;;;5048665;27;88376;-52
2022/08/07 13:37:03;;;;;;;6.73;4.00;;;;;;;;;;5048316;27;87045;-52
2022/08/07 13:39:40;;;;;;;7.73;3.90;;;;;;;;;;5048020;27;87107;-52
2022/08/07 13:42:28;;;;;;;6.83;4.37;;;;;;;;;;5046471;27;87385;-52
2022/08/07 13:44:57;;;;;;;6.47;4.00;;;;;;;;;;5047969;27;87065;-52
2022/08/07 13:47:45;;;;;;;7.33;3.90;;;;;;;;;;5046061;27;87058;-52
2022/08/07 13:50:35;;;;;;;7.40;3.73;;;;;;;;;;5047823;27;90946;-52
2022/08/07 13:53:24;;;;;;;5.50;3.20;;;;;;;;;;5050191;27;87443;-52
2022/08/07 13:56:03;;;;;;;6.87;3.53;;;;;;;;;;5050241;27;87048;-51
2022/08/07 14:01:24;;;;;;;4.67;2.90;;;;;;;;;;5048122;27;89061;-52
2022/08/07 14:03:53;;;;;;;7.10;3.20;;;;;;;;;;5063863;27;89595;-52
2022/08/07 14:06:37;;;;;;;4.47;2.70;;;;;;;;;;5063193;27;86993;-52
2022/08/07 14:09:06;;;;;;;5.23;2.07;;;;;;;;;;5043649;27;87034;-52
2022/08/07 14:11:36;;;;;;;2.43;2.20;;;;;;;;;;5043294;28;89183;-52
2022/08/07 14:14:27;;;;;;;5.17;2.87;;;;;;;;;;5044003;27;87060;-52
2022/08/07 14:16:56;;;;;;;3.03;2.30;;;;;;;;;;5044396;27;87049;-52
2022/08/07 14:19:29;;;;;;;4.20;1.87;;;;;;;;;;5044463;27;86279;-52
2022/08/07 14:22:21;;;;;;;3.53;2.50;;;;;;;;;;5043080;27;87683;-52
2022/08/07 14:25:04;;;;;;;3.63;2.20;;;;;;;;;;5046109;27;87572;-52
2022/08/07 14:27:36;;;;;;;2.47;1.73;;;;;;;;;;5043831;28;87956;-53
2022/08/07 14:30:24;;;;;;;3.70;2.00;;;;;;;;;;5043438;27;86952;-52
2022/08/07 14:33:01;;;;;;;5.37;1.90;;;;;;;;;;5042555;27;89284;-52
2022/08/07 14:35:32;;;;;;;3.60;1.63;;;;;;;;;;5043112;28;89099;-52
2022/08/07 14:38:16;;;;;;;2.70;2.03;;;;;;;;;;5042991;27;87006;-52
2022/08/07 14:40:59;;;;;;;3.00;1.70;;;;;;;;;;5043260;28;86960;-52
2022/08/07 14:43:31;;;;;;;2.60;1.40;;;;;;;;;;5043146;27;88164;-52
2022/08/07 14:46:20;;;;;;;3.27;1.63;;;;;;;;;;5043749;27;87446;-52
2022/08/07 14:48:59;;;;;;;2.60;1.90;;;;;;;;;;5061305;27;87449;-52
2022/08/07 14:51:47;;;;;;;2.10;1.30;;;;;;;;;;5063470;27;87071;-52
2022/08/07 14:54:34;;;;;;;2.00;1.40;;;;;;;;;;5063028;27;89989;-52
2022/08/07 14:57:10;;;;;;;2.33;1.60;;;;;;;;;;5063452;27;88999;-52
2022/08/07 14:59:47;;;;;;;2.13;1.43;;;;;;;;;;5063532;27;87789;-52
2022/08/07 15:02:32;;;;;;;1.70;1.57;;;;;;;;;;5063257;27;86919;-52
2022/08/07 15:05:02;;;;;;;2.27;1.73;;;;;;;;;;5063142;27;87938;-52
2022/08/07 15:07:30;;;;;;;1.53;1.23;;;;;;;;;;5063173;27;87813;-52
2022/08/07 15:10:21;;;;;;;2.00;0.80;;;;;;;;;;5063404;27;86973;-52
2022/08/07 15:13:11;;;;;;;2.30;1.30;;;;;;;;;;5063309;27;86252;-52
2022/08/07 15:15:41;;;;;;;2.00;1.20;;;;;;;;;;5062984;27;88046;-52
2022/08/07 15:18:11;;;;;;;2.23;1.30;;;;;;;;;;5053715;27;87810;-53
2022/08/07 15:21:00;;;;;;;1.83;1.20;;;;;;;;;;5062315;27;87976;-52
2022/08/07 15:23:35;;;;;;;1.67;1.20;;;;;;;;;;5062758;27;86968;-52
2022/08/07 15:26:26;;;;;;;1.60;1.20;;;;;;;;;;5062813;27;87644;-53
2022/08/07 15:28:56;;;;;;;2.47;1.30;;;;;;;;;;5062636;27;87715;-53
2022/08/07 15:31:44;;;;;;;2.10;1.23;;;;;;;;;;5062532;27;86905;-53
2022/08/07 15:34:27;;;;;;;1.90;1.33;;;;;;;;;;5063090;27;87065;-52
2022/08/07 15:36:57;;;;;;;1.67;1.00;;;;;;;;;;5062857;27;88033;-52
2022/08/07 15:39:32;;;;;;;4.53;1.23;;;;;;;;;;5063254;27;88846;-52
2022/08/07 15:42:47;;;;;;;1.73;1.10;;;;;;;;;;5062968;27;87306;-52
2022/08/07 15:45:26;;;;;;;1.70;1.20;;;;;;;;;;5063028;27;87046;-52
2022/08/07 15:48:17;;;;;;;1.33;1.03;;;;;;;;;;5061540;27;87890;-52